sensor_id;sensor_type;location;lat;lon;timestamp;pressure;altitude;pressure_sealevel;temperature;humidity
46583;BME280;32309;48.858;8.252;2023-04-02T00:01:20;99584.59;;;8.01;90.13
46583;BME280;32309;48.858;8.252;2023-04-02T00:05:44;99584.84;;;7.96;89.66
46583;BME280;32309;48.858;8.252;2023-04-02T00:07:51;99583.16;;;7.95;89.88
46583;BME280;32309;48.858;8.252;2023-04-02T00:09:56;99592.59;;;7.96;89.69
46583;BME280;32309;48.858;8.252;2023-04-02T00:11:57;99581.44;;;7.96;89.96
46583;BME280;32309;48.858;8.252;2023-04-02T00:13:59;99583.16;;;7.95;90.21
46583;BME280;32309;48.858;8.252;2023-04-02T00:16:02;99597.66;;;7.98;90.11
46583;BME280;32309;48.858;8.252;2023-04-02T00:18:04;99592.59;;;7.96;89.87
46583;BME280;32309;48.858;8.252;2023-04-02T00:20:05;99587.50;;;7.95;89.73
46583;BME280;32309;48.858;8.252;2023-04-02T00:22:08;99588.25;;;7.97;89.95
46583;BME280;32309;48.858;8.252;2023-04-02T00:24:16;99596.84;;;7.97;89.36
46583;BME280;32309;48.858;8.252;2023-04-02T00:28:32;99594.16;;;7.99;89.32
46583;BME280;32309;48.858;8.252;2023-04-02T00:30:33;99599.31;;;7.99;89.24
46583;BME280;32309;48.858;8.252;2023-04-02T00:32:34;99596.63;;;8.00;89.41
46583;BME280;32309;48.858;8.252;2023-04-02T00:34:37;99600.22;;;7.98;88.49
46583;BME280;32309;48.858;8.252;2023-04-02T00:36:38;99592.50;;;7.98;88.41
46583;BME280;32309;48.858;8.252;2023-04-02T00:38:40;99596.75;;;7.99;88.61
46583;BME280;32309;48.858;8.252;2023-04-02T00:40:42;99598.56;;;7.97;88.39
46583;BME280;32309;48.858;8.252;2023-04-02T00:42:43;99600.31;;;7.96;87.97
46583;BME280;32309;48.858;8.252;2023-04-02T00:44:44;99601.91;;;7.99;88.81
46583;BME280;32309;48.858;8.252;2023-04-02T00:46:45;99597.56;;;7.99;88.97
46583;BME280;32309;48.858;8.252;2023-04-02T00:48:59;99600.06;;;8.01;88.58
46583;BME280;32309;48.858;8.252;2023-04-02T00:51:13;99593.34;;;7.98;87.79
46583;BME280;32309;48.858;8.252;2023-04-02T00:53:26;99592.41;;;7.99;87.86
46583;BME280;32309;48.858;8.252;2023-04-02T00:55:33;99599.31;;;7.99;87.98
46583;BME280;32309;48.858;8.252;2023-04-02T00:57:40;99592.50;;;7.98;87.45
46583;BME280;32309;48.858;8.252;2023-04-02T00:59:54;99596.63;;;8.00;87.66
46583;BME280;32309;48.858;8.252;2023-04-02T01:01:59;99599.31;;;7.99;87.65
46583;BME280;32309;48.858;8.252;2023-04-02T01:04:28;99600.06;;;8.01;87.35
46583;BME280;32309;48.858;8.252;2023-04-02T01:06:35;99600.13;;;7.99;87.34
46583;BME280;32309;48.858;8.252;2023-04-02T01:15:42;99605.28;;;7.99;87.19
46583;BME280;32309;48.858;8.252;2023-04-02T01:20:11;99607.81;;;8.01;87.80
46583;BME280;32309;48.858;8.252;2023-04-02T01:22:36;99606.88;;;8.02;87.65
46583;BME280;32309;48.858;8.252;2023-04-02T01:24:41;99606.88;;;8.02;87.80
46583;BME280;32309;48.858;8.252;2023-04-02T01:31:01;99618.88;;;8.03;88.00
46583;BME280;32309;48.858;8.252;2023-04-02T01:33:02;99610.31;;;8.03;87.47
46583;BME280;32309;48.858;8.252;2023-04-02T01:35:04;99617.09;;;8.04;87.85
46583;BME280;32309;48.858;8.252;2023-04-02T01:41:42;99611.94;;;8.04;87.69
46583;BME280;32309;48.858;8.252;2023-04-02T01:43:45;99619.78;;;8.02;87.80
46583;BME280;32309;48.858;8.252;2023-04-02T01:45:50;99620.53;;;8.04;87.77
46583;BME280;32309;48.858;8.252;2023-04-02T01:47:51;99617.94;;;8.04;88.01
46583;BME280;32309;48.858;8.252;2023-04-02T01:49:52;99616.19;;;8.05;88.06
46583;BME280;32309;48.858;8.252;2023-04-02T01:51:55;99623.03;;;8.06;88.22
46583;BME280;32309;48.858;8.252;2023-04-02T01:53:57;99622.09;;;8.07;88.05
46583;BME280;32309;48.858;8.252;2023-04-02T01:56:00;99624.69;;;8.07;88.06
46583;BME280;32309;48.858;8.252;2023-04-02T01:58:01;99629.00;;;8.06;87.68
46583;BME280;32309;48.858;8.252;2023-04-02T02:00:03;99624.69;;;8.07;87.98
46583;BME280;32309;48.858;8.252;2023-04-02T02:02:12;99628.09;;;8.07;88.30
46583;BME280;32309;48.858;8.252;2023-04-02T02:04:13;99629.75;;;8.08;88.29
46583;BME280;32309;48.858;8.252;2023-04-02T02:06:16;99630.56;;;8.09;88.27
46583;BME280;32309;48.858;8.252;2023-04-02T02:09:02;99629.66;;;8.10;88.44
46583;BME280;32309;48.858;8.252;2023-04-02T02:10:48;99636.50;;;8.11;88.69
46583;BME280;32309;48.858;8.252;2023-04-02T02:12:48;99642.66;;;8.08;88.59
46583;BME280;32309;48.858;8.252;2023-04-02T02:14:49;99634.09;;;8.08;88.77
46583;BME280;32309;48.858;8.252;2023-04-02T02:16:52;99636.75;;;8.06;88.66
46583;BME280;32309;48.858;8.252;2023-04-02T02:18:56;99640.19;;;8.07;88.77
46583;BME280;32309;48.858;8.252;2023-04-02T02:21:01;99642.91;;;8.04;89.14
46583;BME280;32309;48.858;8.252;2023-04-02T02:23:08;99645.50;;;8.04;89.27
46583;BME280;32309;48.858;8.252;2023-04-02T02:25:19;99646.34;;;8.04;89.06
46583;BME280;32309;48.858;8.252;2023-04-02T02:29:23;99649.84;;;8.03;89.34
46583;BME280;32309;48.858;8.252;2023-04-02T02:31:28;99655.81;;;8.04;89.31
46583;BME280;32309;48.858;8.252;2023-04-02T02:35:54;99661.91;;;8.03;89.70
46583;BME280;32309;48.858;8.252;2023-04-02T02:38:13;99664.59;;;8.01;90.44
46583;BME280;32309;48.858;8.252;2023-04-02T02:40:19;99659.50;;;7.99;90.40
46583;BME280;32309;48.858;8.252;2023-04-02T02:42:35;99668.09;;;8.00;90.23
46583;BME280;32309;48.858;8.252;2023-04-02T02:44:38;99663.84;;;7.99;90.41
46583;BME280;32309;48.858;8.252;2023-04-02T02:46:44;99667.31;;;7.98;91.02
46583;BME280;32309;48.858;8.252;2023-04-02T02:48:48;99672.47;;;7.98;90.51
46583;BME280;32309;48.858;8.252;2023-04-02T02:50:53;99674.16;;;7.99;91.33
46583;BME280;32309;48.858;8.252;2023-04-02T02:52:56;99670.75;;;7.98;90.94
46583;BME280;32309;48.858;8.252;2023-04-02T02:54:59;99673.41;;;7.97;91.48
46583;BME280;32309;48.858;8.252;2023-04-02T02:57:06;99669.19;;;7.96;91.41
46583;BME280;32309;48.858;8.252;2023-04-02T02:59:11;99672.66;;;7.95;91.96
46583;BME280;32309;48.858;8.252;2023-04-02T03:01:15;99680.31;;;7.96;91.96
46583;BME280;32309;48.858;8.252;2023-04-02T03:03:25;99676.91;;;7.96;91.86
46583;BME280;32309;48.858;8.252;2023-04-02T03:05:27;99673.50;;;7.95;92.42
46583;BME280;32309;48.858;8.252;2023-04-02T03:07:29;99676.97;;;7.94;92.52
46583;BME280;32309;48.858;8.252;2023-04-02T03:11:43;99683.09;;;7.93;93.26
46583;BME280;32309;48.858;8.252;2023-04-02T03:13:51;99680.50;;;7.93;92.99
46583;BME280;32309;48.858;8.252;2023-04-02T03:16:19;99693.41;;;7.93;93.06
46583;BME280;32309;48.858;8.252;2023-04-02T03:22:52;99695.22;;;7.91;92.93
46583;BME280;32309;48.858;8.252;2023-04-02T03:25:13;99702.06;;;7.92;92.96
46583;BME280;32309;48.858;8.252;2023-04-02T03:27:23;99703.06;;;7.90;93.34
46583;BME280;32309;48.858;8.252;2023-04-02T03:29:25;99700.47;;;7.90;93.73
46583;BME280;32309;48.858;8.252;2023-04-02T03:31:31;99702.25;;;7.89;93.46
46583;BME280;32309;48.858;8.252;2023-04-02T03:33:38;99704.88;;;7.88;93.35
46583;BME280;32309;48.858;8.252;2023-04-02T03:35:45;99715.97;;;7.90;93.30
46583;BME280;32309;48.858;8.252;2023-04-02T03:37:52;99706.72;;;7.86;93.63
46583;BME280;32309;48.858;8.252;2023-04-02T03:39:59;99712.63;;;7.88;93.42
46583;BME280;32309;48.858;8.252;2023-04-02T03:42:07;99712.78;;;7.85;94.11
46583;BME280;32309;48.858;8.252;2023-04-02T03:44:19;99711.13;;;7.83;93.99
46583;BME280;32309;48.858;8.252;2023-04-02T03:46:36;99718.78;;;7.85;94.07
46583;BME280;32309;48.858;8.252;2023-04-02T03:48:40;99719.63;;;7.86;93.92
46583;BME280;32309;48.858;8.252;2023-04-02T03:50:46;99716.19;;;7.85;94.13
46583;BME280;32309;48.858;8.252;2023-04-02T03:52:54;99720.44;;;7.86;94.41
46583;BME280;32309;48.858;8.252;2023-04-02T03:54:57;99728.09;;;7.88;94.37
46583;BME280;32309;48.858;8.252;2023-04-02T03:56:59;99730.69;;;7.88;94.33
46583;BME280;32309;48.858;8.252;2023-04-02T04:01:30;99725.50;;;7.88;94.43
46583;BME280;32309;48.858;8.252;2023-04-02T04:03:40;99735.78;;;7.89;93.73
46583;BME280;32309;48.858;8.252;2023-04-02T04:05:54;99727.19;;;7.89;94.20
46583;BME280;32309;48.858;8.252;2023-04-02T04:07:59;99734.84;;;7.90;94.08
46583;BME280;32309;48.858;8.252;2023-04-02T04:10:04;99733.19;;;7.89;94.08
46583;BME280;32309;48.858;8.252;2023-04-02T04:12:08;99734.00;;;7.90;93.80
46583;BME280;32309;48.858;8.252;2023-04-02T04:14:28;99736.78;;;7.87;93.88
46583;BME280;32309;48.858;8.252;2023-04-02T04:16:38;99745.25;;;7.89;93.87
46583;BME280;32309;48.858;8.252;2023-04-02T04:19:02;99738.41;;;7.88;94.06
46583;BME280;32309;48.858;8.252;2023-04-02T04:21:11;99743.66;;;7.86;93.86
46583;BME280;32309;48.858;8.252;2023-04-02T04:23:29;99745.34;;;7.87;93.76
46583;BME280;32309;48.858;8.252;2023-04-02T04:25:40;99749.81;;;7.83;93.91
46583;BME280;32309;48.858;8.252;2023-04-02T04:32:34;99761.13;;;7.81;93.69
46583;BME280;32309;48.858;8.252;2023-04-02T04:34:41;99759.41;;;7.81;93.82
46583;BME280;32309;48.858;8.252;2023-04-02T04:36:56;99759.56;;;7.78;93.29
46583;BME280;32309;48.858;8.252;2023-04-02T04:39:04;99764.72;;;7.78;93.30
46583;BME280;32309;48.858;8.252;2023-04-02T04:41:17;99767.47;;;7.75;94.29
46583;BME280;32309;48.858;8.252;2023-04-02T04:43:24;99775.13;;;7.77;93.87
46583;BME280;32309;48.858;8.252;2023-04-02T04:45:49;99780.38;;;7.75;94.24
46583;BME280;32309;48.858;8.252;2023-04-02T04:47:58;99782.19;;;7.73;94.42
46583;BME280;32309;48.858;8.252;2023-04-02T04:50:04;99789.19;;;7.71;94.98
46583;BME280;32309;48.858;8.252;2023-04-02T04:52:25;99796.09;;;7.71;95.57
46583;BME280;32309;48.858;8.252;2023-04-02T04:54:35;99798.84;;;7.68;96.23
46583;BME280;32309;48.858;8.252;2023-04-02T04:56:38;99800.59;;;7.67;96.34
46583;BME280;32309;48.858;8.252;2023-04-02T04:58:41;99802.31;;;7.66;96.94
46583;BME280;32309;48.858;8.252;2023-04-02T05:05:39;99805.75;;;7.67;97.29
46583;BME280;32309;48.858;8.252;2023-04-02T05:07:43;99820.38;;;7.66;97.75
46583;BME280;32309;48.858;8.252;2023-04-02T05:12:58;99821.38;;;7.64;97.77
46583;BME280;32309;48.858;8.252;2023-04-02T05:17:08;99822.31;;;7.63;98.15
46583;BME280;32309;48.858;8.252;2023-04-02T05:19:23;99820.47;;;7.65;98.65
46583;BME280;32309;48.858;8.252;2023-04-02T05:26:18;99842.78;;;7.66;98.56
46583;BME280;32309;48.858;8.252;2023-04-02T05:30:55;99849.59;;;7.67;98.20
46583;BME280;32309;48.858;8.252;2023-04-02T05:33:03;99851.31;;;7.66;99.37
46583;BME280;32309;48.858;8.252;2023-04-02T05:35:18;99858.25;;;7.66;99.05
46583;BME280;32309;48.858;8.252;2023-04-02T05:37:23;99857.34;;;7.67;98.98
46583;BME280;32309;48.858;8.252;2023-04-02T05:39:25;99855.66;;;7.66;99.37
46583;BME280;32309;48.858;8.252;2023-04-02T05:43:27;99851.28;;;7.68;99.40
46583;BME280;32309;48.858;8.252;2023-04-02T05:45:33;99858.06;;;7.69;99.48
46583;BME280;32309;48.858;8.252;2023-04-02T05:47:35;99855.41;;;7.71;99.67
46583;BME280;32309;48.858;8.252;2023-04-02T05:51:47;99865.69;;;7.72;99.66
46583;BME280;32309;48.858;8.252;2023-04-02T05:53:52;99871.66;;;7.73;99.31
46583;BME280;32309;48.858;8.252;2023-04-02T06:02:36;99876.66;;;7.76;98.87
46583;BME280;32309;48.858;8.252;2023-04-02T06:06:57;99880.06;;;7.76;99.05
46583;BME280;32309;48.858;8.252;2023-04-02T06:09:05;99888.56;;;7.78;99.30
46583;BME280;32309;48.858;8.252;2023-04-02T06:11:19;99884.34;;;7.77;99.45
46583;BME280;32309;48.858;8.252;2023-04-02T06:13:21;99883.34;;;7.80;99.55
46583;BME280;32309;48.858;8.252;2023-04-02T06:15:22;99887.47;;;7.82;99.18
46583;BME280;32309;48.858;8.252;2023-04-02T06:17:23;99896.97;;;7.82;99.57
46583;BME280;32309;48.858;8.252;2023-04-02T06:19:28;99891.72;;;7.83;99.78
46583;BME280;32309;48.858;8.252;2023-04-02T06:21:30;99901.16;;;7.85;99.77
46583;BME280;32309;48.858;8.252;2023-04-02T06:23:37;99903.63;;;7.86;99.13
46583;BME280;32309;48.858;8.252;2023-04-02T06:25:44;99907.91;;;7.87;99.38
46583;BME280;32309;48.858;8.252;2023-04-02T06:27:49;99908.66;;;7.89;99.50
46583;BME280;32309;48.858;8.252;2023-04-02T06:29:52;99913.72;;;7.91;99.23
46583;BME280;32309;48.858;8.252;2023-04-02T06:32:00;99926.56;;;7.92;98.80
46583;BME280;32309;48.858;8.252;2023-04-02T06:34:02;99917.81;;;7.95;99.15
46583;BME280;32309;48.858;8.252;2023-04-02T06:36:05;99919.50;;;7.96;99.36
46583;BME280;32309;48.858;8.252;2023-04-02T06:38:18;99919.50;;;7.96;99.15
46583;BME280;32309;48.858;8.252;2023-04-02T06:42:29;99928.75;;;8.00;98.96
46583;BME280;32309;48.858;8.252;2023-04-02T06:44:34;99938.22;;;7.99;98.74
46583;BME280;32309;48.858;8.252;2023-04-02T06:46:41;99940.72;;;8.01;98.46
46583;BME280;32309;48.858;8.252;2023-04-02T06:48:44;99946.63;;;8.03;98.57
46583;BME280;32309;48.858;8.252;2023-04-02T06:50:56;99947.41;;;8.05;98.58
46583;BME280;32309;48.858;8.252;2023-04-02T06:53:08;99950.72;;;8.07;98.61
46583;BME280;32309;48.858;8.252;2023-04-02T06:56:09;99953.22;;;8.09;98.74
46583;BME280;32309;48.858;8.252;2023-04-02T06:57:51;99953.97;;;8.11;98.46
46583;BME280;32309;48.858;8.252;2023-04-02T06:59:51;99953.97;;;8.11;98.89
46583;BME280;32309;48.858;8.252;2023-04-02T07:01:55;99958.97;;;8.14;98.66
46583;BME280;32309;48.858;8.252;2023-04-02T07:04:00;99962.41;;;8.14;98.59
46583;BME280;32309;48.858;8.252;2023-04-02T07:06:00;99962.31;;;8.16;98.42
46583;BME280;32309;48.858;8.252;2023-04-02T07:08:02;99973.31;;;8.20;98.33
46583;BME280;32309;48.858;8.252;2023-04-02T07:10:02;99975.81;;;8.21;98.27
46583;BME280;32309;48.858;8.252;2023-04-02T07:12:09;99975.66;;;8.24;98.00
46583;BME280;32309;48.858;8.252;2023-04-02T07:14:11;99979.00;;;8.26;98.10
46583;BME280;32309;48.858;8.252;2023-04-02T07:16:13;99980.59;;;8.29;98.36
46583;BME280;32309;48.858;8.252;2023-04-02T07:20:29;99988.06;;;8.33;98.06
46583;BME280;32309;48.858;8.252;2023-04-02T07:22:32;99987.91;;;8.37;97.97
46583;BME280;32309;48.858;8.252;2023-04-02T07:24:32;99987.75;;;8.40;98.23
46583;BME280;32309;48.858;8.252;2023-04-02T07:26:32;99987.75;;;8.40;97.77
46583;BME280;32309;48.858;8.252;2023-04-02T07:28:33;99991.09;;;8.42;97.74
46583;BME280;32309;48.858;8.252;2023-04-02T07:30:33;99998.78;;;8.43;97.59
46583;BME280;32309;48.858;8.252;2023-04-02T07:32:34;99998.69;;;8.45;97.13
46583;BME280;32309;48.858;8.252;2023-04-02T07:34:35;99999.47;;;8.47;97.80
46583;BME280;32309;48.858;8.252;2023-04-02T07:36:36;100007.88;;;8.51;97.14
46583;BME280;32309;48.858;8.252;2023-04-02T07:38:36;100009.47;;;8.53;97.19
46583;BME280;32309;48.858;8.252;2023-04-02T07:40:36;100004.91;;;8.58;96.77
46583;BME280;32309;48.858;8.252;2023-04-02T07:42:37;100010.78;;;8.60;96.91
46583;BME280;32309;48.858;8.252;2023-04-02T07:44:37;100012.25;;;8.66;96.89
46583;BME280;32309;48.858;8.252;2023-04-02T07:46:37;100014.56;;;8.71;96.11
46583;BME280;32309;48.858;8.252;2023-04-02T07:48:38;100019.59;;;8.74;95.92
46583;BME280;32309;48.858;8.252;2023-04-02T07:50:39;100022.00;;;8.77;95.97
46583;BME280;32309;48.858;8.252;2023-04-02T07:52:40;100025.06;;;8.83;96.54
46583;BME280;32309;48.858;8.252;2023-04-02T07:54:41;100025.75;;;8.87;95.59
46583;BME280;32309;48.858;8.252;2023-04-02T07:56:42;100027.41;;;8.88;95.38
46583;BME280;32309;48.858;8.252;2023-04-02T07:58:43;100022.00;;;8.93;94.84
46583;BME280;32309;48.858;8.252;2023-04-02T08:00:43;100034.09;;;8.92;94.49
46583;BME280;32309;48.858;8.252;2023-04-02T08:02:43;100041.56;;;8.97;94.21
46583;BME280;32309;48.858;8.252;2023-04-02T08:04:44;100043.25;;;8.98;94.10
46583;BME280;32309;48.858;8.252;2023-04-02T08:06:44;100046.59;;;9.00;93.81
46583;BME280;32309;48.858;8.252;2023-04-02T08:08:45;100048.91;;;9.05;93.75
46583;BME280;32309;48.858;8.252;2023-04-02T08:10:46;100054.84;;;9.07;93.46
46583;BME280;32309;48.858;8.252;2023-04-02T08:12:46;100054.69;;;9.10;93.81
46583;BME280;32309;48.858;8.252;2023-04-02T08:14:47;100052.84;;;9.12;93.67
46583;BME280;32309;48.858;8.252;2023-04-02T08:18:47;100054.94;;;9.21;93.89
46583;BME280;32309;48.858;8.252;2023-04-02T08:20:48;100062.31;;;9.27;93.32
46583;BME280;32309;48.858;8.252;2023-04-02T08:22:48;100062.81;;;9.34;93.73
46583;BME280;32309;48.858;8.252;2023-04-02T08:24:49;100059.31;;;9.35;92.47
46583;BME280;32309;48.858;8.252;2023-04-02T08:26:49;100064.25;;;9.40;93.21
46583;BME280;32309;48.858;8.252;2023-04-02T08:28:52;100063.06;;;9.45;92.45
46583;BME280;32309;48.858;8.252;2023-04-02T08:30:52;100064.56;;;9.49;91.98
46583;BME280;32309;48.858;8.252;2023-04-02T08:32:52;100071.41;;;9.51;90.76
46583;BME280;32309;48.858;8.252;2023-04-02T08:34:53;100073.91;;;9.52;91.36
46583;BME280;32309;48.858;8.252;2023-04-02T08:36:56;100083.25;;;9.55;91.17
46583;BME280;32309;48.858;8.252;2023-04-02T08:38:57;100086.41;;;9.60;91.08
46583;BME280;32309;48.858;8.252;2023-04-02T08:40:58;100086.13;;;9.64;91.50
46583;BME280;32309;48.858;8.252;2023-04-02T08:43:23;100088.47;;;9.69;90.33
46583;BME280;32309;48.858;8.252;2023-04-02T08:48:12;100094.03;;;9.77;89.41
46583;BME280;32309;48.858;8.252;2023-04-02T08:52:33;100099.03;;;9.80;87.95
46583;BME280;32309;48.858;8.252;2023-04-02T08:54:36;100108.31;;;9.85;87.30
46583;BME280;32309;48.858;8.252;2023-04-02T08:56:41;100102.19;;;9.86;87.04
46583;BME280;32309;48.858;8.252;2023-04-02T08:58:49;100105.88;;;9.81;86.25
46583;BME280;32309;48.858;8.252;2023-04-02T09:00:53;100117.66;;;9.87;85.82
46583;BME280;32309;48.858;8.252;2023-04-02T09:02:56;100119.16;;;9.91;86.08
46583;BME280;32309;48.858;8.252;2023-04-02T09:05:02;100118.06;;;9.95;86.45
46583;BME280;32309;48.858;8.252;2023-04-02T09:07:07;100123.81;;;10.01;85.61
46583;BME280;32309;48.858;8.252;2023-04-02T09:09:13;100114.00;;;10.06;86.33
46583;BME280;32309;48.858;8.252;2023-04-02T09:11:20;100116.31;;;10.10;86.24
46583;BME280;32309;48.858;8.252;2023-04-02T09:13:25;100124.56;;;10.17;87.43
46583;BME280;32309;48.858;8.252;2023-04-02T09:15:30;100133.91;;;10.20;85.93
46583;BME280;32309;48.858;8.252;2023-04-02T09:17:33;100133.75;;;10.23;84.49
46583;BME280;32309;48.858;8.252;2023-04-02T09:19:37;100132.66;;;10.27;85.90
46583;BME280;32309;48.858;8.252;2023-04-02T09:22:26;100138.56;;;10.29;83.71
46583;BME280;32309;48.858;8.252;2023-04-02T09:24:26;100136.72;;;10.31;83.77
46583;BME280;32309;48.858;8.252;2023-04-02T09:26:27;100141.81;;;10.32;84.88
46583;BME280;32309;48.858;8.252;2023-04-02T09:28:28;100150.41;;;10.33;84.46
46583;BME280;32309;48.858;8.252;2023-04-02T09:34:35;100156.28;;;10.37;84.26
46583;BME280;32309;48.858;8.252;2023-04-02T09:36:36;100153.59;;;10.38;84.60
46583;BME280;32309;48.858;8.252;2023-04-02T09:38:38;100158.19;;;10.33;81.42
46583;BME280;32309;48.858;8.252;2023-04-02T09:40:57;100155.47;;;10.36;82.29
46583;BME280;32309;48.858;8.252;2023-04-02T09:43:02;100161.22;;;10.41;81.75
46583;BME280;32309;48.858;8.252;2023-04-02T09:45:20;100173.16;;;10.44;80.85
46583;BME280;32309;48.858;8.252;2023-04-02T09:47:24;100169.34;;;10.49;81.29
46583;BME280;32309;48.858;8.252;2023-04-02T09:49:27;100169.06;;;10.54;80.73
46583;BME280;32309;48.858;8.252;2023-04-02T09:51:38;100172.59;;;10.68;83.42
46583;BME280;32309;48.858;8.252;2023-04-02T09:53:40;100170.00;;;10.68;80.92
46583;BME280;32309;48.858;8.252;2023-04-02T09:55:46;100167.91;;;10.74;80.44
46583;BME280;32309;48.858;8.252;2023-04-02T09:57:47;100174.13;;;10.86;83.95
46583;BME280;32309;48.858;8.252;2023-04-02T09:59:47;100171.97;;;10.93;83.74
46583;BME280;32309;48.858;8.252;2023-04-02T10:02:21;100169.19;;;10.96;83.15
46583;BME280;32309;48.858;8.252;2023-04-02T10:06:29;100171.13;;;11.07;81.88
46583;BME280;32309;48.858;8.252;2023-04-02T10:08:30;100170.22;;;11.08;82.85
46583;BME280;32309;48.858;8.252;2023-04-02T10:10:45;100180.00;;;11.17;81.93
46583;BME280;32309;48.858;8.252;2023-04-02T10:13:03;100182.78;;;11.28;81.40
46583;BME280;32309;48.858;8.252;2023-04-02T10:15:12;100184.88;;;11.36;81.32
46583;BME280;32309;48.858;8.252;2023-04-02T10:17:26;100187.00;;;11.44;80.46
46583;BME280;32309;48.858;8.252;2023-04-02T10:19:33;100185.81;;;11.49;77.55
46583;BME280;32309;48.858;8.252;2023-04-02T10:21:37;100189.00;;;11.68;80.09
46583;BME280;32309;48.858;8.252;2023-04-02T10:23:41;100186.66;;;11.77;78.76
46583;BME280;32309;48.858;8.252;2023-04-02T10:25:44;100196.25;;;11.90;78.10
46583;BME280;32309;48.858;8.252;2023-04-02T10:28:04;100193.19;;;11.97;78.31
46583;BME280;32309;48.858;8.252;2023-04-02T10:30:29;100183.22;;;12.04;77.86
46583;BME280;32309;48.858;8.252;2023-04-02T10:35:03;100192.53;;;12.21;73.42
46583;BME280;32309;48.858;8.252;2023-04-02T10:39:27;100198.38;;;12.38;74.32
46583;BME280;32309;48.858;8.252;2023-04-02T10:41:40;100197.97;;;12.44;73.77
46583;BME280;32309;48.858;8.252;2023-04-02T10:43:50;100202.88;;;12.48;75.22
46583;BME280;32309;48.858;8.252;2023-04-02T10:46:08;100207.84;;;12.52;71.55
46583;BME280;32309;48.858;8.252;2023-04-02T10:56:48;100217.31;;;12.53;71.60
46583;BME280;32309;48.858;8.252;2023-04-02T10:58:53;100217.00;;;12.57;69.92
46583;BME280;32309;48.858;8.252;2023-04-02T11:01:03;100217.25;;;12.67;72.96
46583;BME280;32309;48.858;8.252;2023-04-02T11:03:21;100210.69;;;12.74;74.08
46583;BME280;32309;48.858;8.252;2023-04-02T11:05:42;100214.41;;;12.70;71.23
46583;BME280;32309;48.858;8.252;2023-04-02T11:10:36;100222.97;;;12.72;67.85
46583;BME280;32309;48.858;8.252;2023-04-02T11:12:46;100219.00;;;12.79;68.82
46583;BME280;32309;48.858;8.252;2023-04-02T11:14:57;100223.28;;;12.80;69.68
46583;BME280;32309;48.858;8.252;2023-04-02T11:22:31;100230.84;;;12.71;73.65
46583;BME280;32309;48.858;8.252;2023-04-02T11:24:53;100246.34;;;12.59;70.42
46583;BME280;32309;48.858;8.252;2023-04-02T11:29:21;100243.41;;;12.38;71.47
46583;BME280;32309;48.858;8.252;2023-04-02T11:31:27;100246.00;;;12.38;71.85
46583;BME280;32309;48.858;8.252;2023-04-02T11:44:23;100258.41;;;12.20;73.30
46583;BME280;32309;48.858;8.252;2023-04-02T11:46:34;100263.06;;;12.15;74.19
46583;BME280;32309;48.858;8.252;2023-04-02T11:48:41;100267.56;;;12.13;73.55
46583;BME280;32309;48.858;8.252;2023-04-02T11:50:43;100265.56;;;12.17;71.55
46583;BME280;32309;48.858;8.252;2023-04-02T11:54:59;100269.06;;;12.03;71.23
46583;BME280;32309;48.858;8.252;2023-04-02T11:57:14;100267.84;;;11.94;71.40
46583;BME280;32309;48.858;8.252;2023-04-02T11:59:34;100273.25;;;11.91;71.63
46583;BME280;32309;48.858;8.252;2023-04-02T12:06:18;100276.03;;;11.88;70.36
46583;BME280;32309;48.858;8.252;2023-04-02T12:10:58;100279.81;;;11.96;71.89
46583;BME280;32309;48.858;8.252;2023-04-02T12:13:02;100284.91;;;11.98;71.06
46583;BME280;32309;48.858;8.252;2023-04-02T12:27:46;100291.09;;;12.10;72.29
46583;BME280;32309;48.858;8.252;2023-04-02T16:12:40;100580.09;;;8.18;97.64
46583;BME280;32309;48.858;8.252;2023-04-02T16:16:54;100588.47;;;8.25;97.25
46583;BME280;32309;48.858;8.252;2023-04-02T16:21:27;100597.75;;;8.29;95.55
46583;BME280;32309;48.858;8.252;2023-04-02T16:23:55;100598.50;;;8.31;95.35
46583;BME280;32309;48.858;8.252;2023-04-02T16:26:01;100595.16;;;8.29;95.17
46583;BME280;32309;48.858;8.252;2023-04-02T16:36:05;100610.91;;;8.23;95.50
46583;BME280;32309;48.858;8.252;2023-04-02T16:40:58;100619.63;;;8.20;95.67
46583;BME280;32309;48.858;8.252;2023-04-02T16:43:32;100620.00;;;8.11;95.62
46583;BME280;32309;48.858;8.252;2023-04-02T16:47:42;100637.09;;;7.93;98.28
46583;BME280;32309;48.858;8.252;2023-04-02T16:49:54;100638.31;;;8.05;97.00
46583;BME280;32309;48.858;8.252;2023-04-02T16:59:13;100648.56;;;7.86;97.58
46583;BME280;32309;48.858;8.252;2023-04-02T17:04:09;100668.31;;;7.64;97.75
46583;BME280;32309;48.858;8.252;2023-04-02T17:10:25;100666.69;;;7.62;97.91
46583;BME280;32309;48.858;8.252;2023-04-02T17:12:47;100665.97;;;7.58;97.58
46583;BME280;32309;48.858;8.252;2023-04-02T17:14:58;100677.91;;;7.61;97.94
46583;BME280;32309;48.858;8.252;2023-04-02T17:17:07;100681.16;;;7.66;97.58
46583;BME280;32309;48.858;8.252;2023-04-02T17:19:13;100686.84;;;7.74;93.89
46583;BME280;32309;48.858;8.252;2023-04-02T17:21:19;100688.69;;;7.71;93.69
46583;BME280;32309;48.858;8.252;2023-04-02T17:23:23;100690.81;;;7.61;95.33
46583;BME280;32309;48.858;8.252;2023-04-02T17:25:25;100697.88;;;7.56;95.91
46583;BME280;32309;48.858;8.252;2023-04-02T17:29:42;100712.19;;;7.64;95.95
46583;BME280;32309;48.858;8.252;2023-04-02T17:31:46;100711.22;;;7.67;94.96
46583;BME280;32309;48.858;8.252;2023-04-02T17:33:49;100715.53;;;7.66;93.84
46583;BME280;32309;48.858;8.252;2023-04-02T17:47:33;100739.59;;;7.67;87.44
46583;BME280;32309;48.858;8.252;2023-04-02T17:52:15;100746.59;;;7.63;87.45
46583;BME280;32309;48.858;8.252;2023-04-02T17:59:26;100762.44;;;7.54;88.10
46583;BME280;32309;48.858;8.252;2023-04-02T18:06:35;100774.72;;;7.47;89.54
46583;BME280;32309;48.858;8.252;2023-04-02T18:11:30;100794.66;;;7.42;91.21
46583;BME280;32309;48.858;8.252;2023-04-02T18:13:44;100795.13;;;7.30;91.57
46583;BME280;32309;48.858;8.252;2023-04-02T18:22:37;100816.59;;;7.05;92.83
46583;BME280;32309;48.858;8.252;2023-04-02T18:34:34;100833.50;;;6.87;93.67
46583;BME280;32309;48.858;8.252;2023-04-02T18:36:51;100842.16;;;6.85;93.50
46583;BME280;32309;48.858;8.252;2023-04-02T18:39:05;100843.03;;;6.85;94.16
46583;BME280;32309;48.858;8.252;2023-04-02T18:41:35;100859.38;;;6.84;93.93